Time;durP1;ratioP1;P1;durP2;ratioP2;P2;SDS_P1;SDS_P2;PMS_P1;PMS_P2;Temp;Humidity;BMP_temperature;BMP_pressure;BME280_temperature;BME280_humidity;BME280_pressure;Samples;Min_cycle;Max_cycle;Signal;HPM_P1;HPM_P2
2023/06/08 00:00:23;;;;;;;37.77;14.20;;;11.90;1.00;;;;;;5013562;28;20767;-54
2023/06/08 00:02:49;;;;;;;30.57;13.60;;;11.80;1.00;;;;;;5013733;28;20226;-54
2023/06/08 00:05:16;;;;;;;29.17;15.00;;;11.80;1.00;;;;;;5013592;28;20279;-54
2023/06/08 00:07:42;;;;;;;30.73;14.30;;;11.80;1.00;;;;;;5013915;28;20188;-54
2023/06/08 00:10:10;;;;;;;29.70;13.77;;;11.70;99.90;;;;;;5013211;28;20906;-54
2023/06/08 00:12:36;;;;;;;33.37;14.60;;;11.70;99.90;;;;;;5013682;28;20551;-53
2023/06/08 00:15:06;;;;;;;38.77;15.10;;;11.70;99.90;;;;;;5013693;28;20430;-53
2023/06/08 00:17:31;;;;;;;35.30;14.80;;;11.60;1.00;;;;;;5015721;28;20415;-55
2023/06/08 00:19:59;;;;;;;30.57;14.97;;;11.60;1.00;;;;;;5016870;28;20851;-53
2023/06/08 00:22:29;;;;;;;38.70;15.40;;;11.60;1.00;;;;;;5016970;28;20196;-54
2023/06/08 00:24:54;;;;;;;28.43;14.73;;;11.50;1.00;;;;;;5017199;28;20522;-54
2023/06/08 00:27:20;;;;;;;30.60;16.20;;;11.50;1.00;;;;;;5016913;28;20545;-54
2023/06/08 00:29:46;;;;;;;30.03;15.70;;;11.40;1.00;;;;;;5016565;28;20184;-54
2023/06/08 00:32:11;;;;;;;28.27;13.70;;;11.40;1.00;;;;;;5017160;28;20275;-55
2023/06/08 00:34:37;;;;;;;30.07;14.33;;;11.30;1.00;;;;;;5016513;28;20180;-55
2023/06/08 00:37:02;;;;;;;36.10;15.50;;;11.30;35.50;;;;;;5016741;28;20212;-54
2023/06/08 00:39:28;;;;;;;49.00;15.80;;;11.20;99.60;;;;;;5016505;28;20589;-54
2023/06/08 00:41:54;;;;;;;33.53;14.83;;;11.20;99.90;;;;;;5016810;28;20180;-54
2023/06/08 00:44:19;;;;;;;30.97;16.50;;;11.20;99.90;;;;;;5016615;28;20543;-54
2023/06/08 00:46:45;;;;;;;29.70;14.80;;;11.10;99.90;;;;;;5016754;28;20247;-54
2023/06/08 00:49:15;;;;;;;34.17;14.27;;;11.10;99.90;;;;;;5016710;28;20552;-54
2023/06/08 00:51:42;;;;;;;36.20;16.20;;;11.10;99.90;;;;;;5016481;28;20415;-54
2023/06/08 00:54:12;;;;;;;35.83;15.40;;;11.00;99.90;;;;;;5016624;28;20412;-54
2023/06/08 00:56:38;;;;;;;34.80;15.30;;;10.90;99.90;;;;;;5016142;28;20446;-54
2023/06/08 00:59:05;;;;;;;32.93;15.23;;;10.90;99.90;;;;;;5016229;28;20511;-54
2023/06/08 01:01:31;;;;;;;32.47;15.47;;;10.80;99.90;;;;;;5016388;28;20415;-54
2023/06/08 01:04:07;;;;;;;28.60;14.20;;;10.80;99.90;;;;;;5016144;28;20474;-54
2023/06/08 01:06:38;;;;;;;42.43;15.27;;;10.80;99.90;;;;;;5016689;28;20466;-54
2023/06/08 01:09:03;;;;;;;36.33;14.90;;;10.70;99.90;;;;;;5016140;28;20418;-54
2023/06/08 01:11:46;;;;;;;28.30;14.97;;;10.70;99.90;;;;;;5016533;28;20458;-54
2023/06/08 01:14:24;;;;;;;36.77;14.70;;;10.60;99.90;;;;;;5016379;28;20268;-54
2023/06/08 01:16:54;;;;;;;38.47;16.73;;;10.60;99.90;;;;;;5017166;28;20407;-55
2023/06/08 01:19:57;;;;;;;30.20;13.90;;;10.50;99.90;;;;;;5017468;28;20411;-55
2023/06/08 01:22:34;;;;;;;34.60;16.07;;;10.50;99.90;;;;;;5017093;28;20938;-54
2023/06/08 01:25:00;;;;;;;33.83;16.07;;;10.50;99.90;;;;;;5015812;28;20403;-54
2023/06/08 01:27:31;;;;;;;37.60;16.90;;;10.40;99.90;;;;;;5015622;28;20462;-54
2023/06/08 01:29:57;;;;;;;33.80;16.27;;;10.50;99.90;;;;;;5015141;28;20408;-54
2023/06/08 01:32:23;;;;;;;32.27;16.67;;;10.50;99.90;;;;;;5015675;28;20435;-55
2023/06/08 01:34:49;;;;;;;34.63;16.67;;;10.50;99.90;;;;;;5015925;28;20192;-54
2023/06/08 01:37:21;;;;;;;31.20;16.13;;;10.50;99.90;;;;;;5015737;28;20196;-54
2023/06/08 01:40:12;;;;;;;28.43;17.07;;;10.50;99.90;;;;;;5015689;28;20243;-54
2023/06/08 01:42:41;;;;;;;35.53;16.20;;;10.50;99.90;;;;;;5015812;28;20419;-54
2023/06/08 01:45:26;;;;;;;33.33;17.53;;;10.40;99.90;;;;;;5015701;28;20415;-54
2023/06/08 01:47:56;;;;;;;33.37;17.77;;;10.50;99.90;;;;;;5028992;28;20431;-54
2023/06/08 01:50:24;;;;;;;38.30;17.00;;;10.40;99.90;;;;;;5015503;28;20434;-54
2023/06/08 01:52:50;;;;;;;32.87;17.40;;;10.40;99.90;;;;;;5015184;28;20490;-55
2023/06/08 01:55:16;;;;;;;29.50;16.30;;;10.40;99.90;;;;;;5015523;28;20420;-54
2023/06/08 01:57:42;;;;;;;31.20;16.47;;;10.40;99.90;;;;;;5015043;28;20192;-54
2023/06/08 02:00:11;;;;;;;32.60;17.00;;;10.40;99.90;;;;;;5015169;28;20419;-54
2023/06/08 02:02:37;;;;;;;38.77;18.90;;;10.40;99.90;;;;;;5014958;28;20427;-54
2023/06/08 02:05:08;;;;;;;51.90;27.13;;;10.30;99.90;;;;;;5014933;28;20524;-55
2023/06/08 02:07:34;;;;;;;46.43;21.03;;;10.40;99.90;;;;;;5014804;28;20459;-54
2023/06/08 02:09:59;;;;;;;45.80;21.63;;;10.40;99.90;;;;;;5015240;28;20423;-54
2023/06/08 02:12:25;;;;;;;45.07;19.50;;;10.40;99.90;;;;;;5014934;28;20199;-54
2023/06/08 02:14:51;;;;;;;40.40;19.40;;;10.30;99.90;;;;;;5014529;28;20231;-54
2023/06/08 02:17:18;;;;;;;42.07;20.50;;;10.30;99.90;;;;;;5014807;28;20187;-54
2023/06/08 02:19:44;;;;;;;45.87;21.27;;;10.30;99.90;;;;;;5014686;28;20635;-54
2023/06/08 02:22:10;;;;;;;38.87;20.10;;;10.30;99.90;;;;;;5015179;28;20418;-54
2023/06/08 02:24:36;;;;;;;54.43;23.70;;;10.40;99.90;;;;;;5014757;28;20764;-54
2023/06/08 02:27:02;;;;;;;46.57;21.60;;;10.40;99.90;;;;;;5014588;28;20215;-54
2023/06/08 02:29:28;;;;;;;58.07;21.50;;;10.40;99.90;;;;;;5014620;28;20191;-54
2023/06/08 02:31:53;;;;;;;46.80;22.47;;;10.40;99.90;;;;;;5014612;28;20415;-55
2023/06/08 02:34:19;;;;;;;48.67;21.60;;;10.50;99.90;;;;;;5014489;28;20219;-54
2023/06/08 02:36:47;;;;;;;50.13;22.60;;;10.50;99.90;;;;;;5014732;28;20192;-54
2023/06/08 02:39:13;;;;;;;46.03;21.07;;;10.40;99.90;;;;;;5014255;28;20315;-55
2023/06/08 02:41:39;;;;;;;48.90;20.83;;;10.40;99.90;;;;;;5014618;28;20417;-54
2023/06/08 02:44:04;;;;;;;44.83;22.40;;;10.40;99.90;;;;;;5014612;28;20844;-54
2023/06/08 02:46:31;;;;;;;60.63;23.10;;;10.40;99.90;;;;;;5014048;28;20265;-54
2023/06/08 02:48:56;;;;;;;54.30;24.07;;;10.40;99.90;;;;;;5014686;28;20258;-55
2023/06/08 02:51:22;;;;;;;50.67;23.83;;;10.30;99.90;;;;;;5014447;28;20506;-54
2023/06/08 02:53:47;;;;;;;50.90;23.07;;;10.40;99.90;;;;;;5014412;28;20741;-54
2023/06/08 02:56:13;;;;;;;51.00;24.20;;;10.40;99.90;;;;;;5014550;28;20195;-55
2023/06/08 02:58:41;;;;;;;53.80;23.70;;;10.40;99.90;;;;;;5014411;28;20204;-54
2023/06/08 03:01:14;;;;;;;68.03;25.17;;;10.40;99.90;;;;;;5014409;28;20184;-54
2023/06/08 03:03:41;;;;;;;62.10;24.87;;;10.40;99.90;;;;;;5014462;28;20407;-54
2023/06/08 03:06:07;;;;;;;62.97;26.37;;;10.40;99.90;;;;;;5013816;28;20890;-54
2023/06/08 03:08:32;;;;;;;63.17;26.97;;;10.50;99.90;;;;;;5014267;28;20427;-54
2023/06/08 03:10:58;;;;;;;56.60;27.40;;;10.50;99.90;;;;;;5014106;28;20176;-54
2023/06/08 03:13:23;;;;;;;54.97;26.73;;;10.50;99.90;;;;;;5014071;28;20238;-54
2023/06/08 03:15:52;;;;;;;49.10;25.83;;;10.50;99.90;;;;;;5013713;28;20180;-54
2023/06/08 03:18:18;;;;;;;59.60;25.97;;;10.50;99.90;;;;;;5014232;28;20184;-54
2023/06/08 03:20:44;;;;;;;60.00;26.53;;;10.60;99.90;;;;;;5014174;28;20415;-54
2023/06/08 03:23:09;;;;;;;53.07;26.43;;;10.70;99.90;;;;;;5014239;28;20613;-54
2023/06/08 03:25:36;;;;;;;57.30;26.57;;;10.70;99.90;;;;;;5014021;28;20223;-54
2023/06/08 03:28:02;;;;;;;54.60;26.53;;;10.70;99.90;;;;;;5013995;28;20196;-54
2023/06/08 03:30:29;;;;;;;59.33;28.27;;;10.60;99.90;;;;;;5013735;28;20412;-55
2023/06/08 03:32:55;;;;;;;65.07;30.17;;;10.60;99.90;;;;;;5013986;28;20683;-55
2023/06/08 03:35:20;;;;;;;70.10;30.73;;;10.50;99.90;;;;;;5013696;28;20447;-55
2023/06/08 03:37:46;;;;;;;61.43;28.60;;;10.50;99.90;;;;;;5013350;28;20415;-54
2023/06/08 03:40:12;;;;;;;57.97;28.07;;;10.50;99.90;;;;;;5013395;28;20516;-54
2023/06/08 03:42:37;;;;;;;58.23;28.40;;;10.50;99.90;;;;;;5013685;28;20187;-53
2023/06/08 03:45:03;;;;;;;66.60;28.27;;;10.50;99.90;;;;;;5013835;28;20263;-54
2023/06/08 03:47:31;;;;;;;63.63;28.90;;;10.50;99.90;;;;;;5013449;28;20223;-54
2023/06/08 03:49:57;;;;;;;64.57;28.67;;;10.60;99.90;;;;;;5013685;28;20438;-54
2023/06/08 03:52:22;;;;;;;64.43;28.93;;;10.60;99.90;;;;;;5015451;28;20475;-54
2023/06/08 03:54:48;;;;;;;72.47;29.27;;;10.60;99.90;;;;;;5017768;28;20188;-54
2023/06/08 03:57:15;;;;;;;58.40;27.97;;;10.60;99.90;;;;;;5017542;28;20534;-53
2023/06/08 03:59:41;;;;;;;62.37;26.97;;;10.60;99.90;;;;;;5017654;28;20192;-55
2023/06/08 04:02:07;;;;;;;69.60;29.17;;;10.60;99.90;;;;;;5017615;28;20415;-55
2023/06/08 04:04:34;;;;;;;50.80;25.93;;;10.70;99.90;;;;;;5017465;28;20176;-54
2023/06/08 04:07:00;;;;;;;54.63;27.97;;;10.70;99.90;;;;;;5017164;28;20215;-55
2023/06/08 04:09:29;;;;;;;53.17;29.23;;;10.80;99.90;;;;;;5017396;28;20421;-54
2023/06/08 04:11:56;;;;;;;54.63;28.93;;;10.70;99.90;;;;;;5017298;28;20615;-54
2023/06/08 04:14:22;;;;;;;56.23;29.20;;;10.80;99.90;;;;;;5017141;28;20419;-55
2023/06/08 04:16:47;;;;;;;57.13;28.50;;;10.90;99.90;;;;;;5017094;28;20855;-53
2023/06/08 04:19:13;;;;;;;53.77;28.10;;;11.00;99.90;;;;;;5017235;28;20415;-54
2023/06/08 04:21:39;;;;;;;48.17;25.43;;;10.90;99.90;;;;;;5017191;28;20176;-54
2023/06/08 04:24:05;;;;;;;55.23;28.60;;;10.90;99.90;;;;;;5017255;28;20223;-54
2023/06/08 04:26:32;;;;;;;58.27;28.70;;;11.00;99.90;;;;;;5016893;28;20215;-54
2023/06/08 04:28:58;;;;;;;65.07;29.43;;;11.10;99.90;;;;;;5016904;28;20419;-54
2023/06/08 04:31:23;;;;;;;61.10;28.23;;;11.10;99.90;;;;;;5017228;28;20476;-55
2023/06/08 04:33:49;;;;;;;60.27;29.60;;;11.10;99.90;;;;;;5016964;28;20212;-54
2023/06/08 04:36:16;;;;;;;60.70;31.67;;;11.20;99.90;;;;;;5016716;28;20655;-55
2023/06/08 04:38:42;;;;;;;59.10;30.80;;;11.20;99.90;;;;;;5016897;28;20518;-54
2023/06/08 04:41:08;;;;;;;61.73;31.97;;;11.30;99.90;;;;;;5016999;28;20415;-54
2023/06/08 04:43:34;;;;;;;59.47;31.70;;;11.30;99.90;;;;;;5017150;28;20195;-54
2023/06/08 04:46:04;;;;;;;53.30;31.37;;;11.40;99.90;;;;;;5016363;28;20458;-54
2023/06/08 04:48:33;;;;;;;62.40;31.80;;;11.40;99.90;;;;;;5016519;28;20473;-54
2023/06/08 04:51:01;;;;;;;64.17;34.30;;;11.50;99.90;;;;;;5016761;28;20423;-55
2023/06/08 04:53:27;;;;;;;68.90;34.50;;;11.50;99.90;;;;;;5015729;28;20478;-54
2023/06/08 04:55:57;;;;;;;62.67;33.87;;;11.40;99.90;;;;;;5016122;28;20473;-54
2023/06/08 04:58:26;;;;;;;57.80;32.50;;;11.40;99.90;;;;;;5016271;28;20431;-54
2023/06/08 05:00:52;;;;;;;58.10;32.87;;;11.40;99.90;;;;;;5016590;28;20498;-54
2023/06/08 05:03:19;;;;;;;58.77;31.50;;;11.40;99.90;;;;;;5016285;28;20498;-54
2023/06/08 05:05:45;;;;;;;55.47;31.20;;;11.40;99.90;;;;;;5016400;28;20463;-54
2023/06/08 05:08:11;;;;;;;55.70;32.23;;;11.40;99.90;;;;;;5016134;28;20509;-55
2023/06/08 05:10:36;;;;;;;61.40;33.67;;;11.50;99.90;;;;;;5016212;28;20576;-54
2023/06/08 05:13:02;;;;;;;52.07;30.67;;;11.60;99.90;;;;;;5016236;28;20184;-54
2023/06/08 05:15:30;;;;;;;60.53;34.53;;;11.70;99.90;;;;;;5015826;28;20237;-54
2023/06/08 05:17:56;;;;;;;58.90;33.50;;;11.70;99.90;;;;;;5016183;28;20199;-54
2023/06/08 05:20:23;;;;;;;55.87;31.70;;;11.80;99.90;;;;;;5015714;28;20431;-54
2023/06/08 05:22:49;;;;;;;51.60;31.60;;;11.90;99.90;;;;;;5016313;28;20184;-54
2023/06/08 05:25:14;;;;;;;47.20;29.60;;;12.00;99.90;;;;;;5016078;28;20867;-54
2023/06/08 05:27:40;;;;;;;62.63;31.67;;;12.10;99.90;;;;;;5015487;28;20208;-54
2023/06/08 05:30:06;;;;;;;54.70;31.63;;;12.10;99.90;;;;;;5015715;28;20237;-54
2023/06/08 05:32:32;;;;;;;62.03;32.97;;;12.30;99.90;;;;;;5015656;28;20181;-54
2023/06/08 05:34:58;;;;;;;54.03;32.73;;;12.40;99.90;;;;;;5015836;28;20426;-54
2023/06/08 05:37:25;;;;;;;56.03;33.33;;;12.40;97.30;;;;;;5015775;28;20191;-54
2023/06/08 05:39:50;;;;;;;58.37;32.10;;;12.50;33.60;;;;;;5014513;28;20501;-54
2023/06/08 05:42:16;;;;;;;57.30;32.37;;;12.60;29.60;;;;;;5012802;28;20462;-54
2023/06/08 05:44:41;;;;;;;66.10;34.80;;;12.70;1.00;;;;;;5013549;28;20187;-54
2023/06/08 05:47:07;;;;;;;55.90;31.90;;;12.70;1.00;;;;;;5014912;28;20539;-54
2023/06/08 05:49:33;;;;;;;57.00;33.03;;;12.80;1.00;;;;;;5015424;28;20648;-54
2023/06/08 05:51:58;;;;;;;47.27;31.47;;;12.90;1.00;;;;;;5015303;28;20236;-55
2023/06/08 05:54:24;;;;;;;54.27;32.13;;;13.00;1.00;;;;;;5015437;28;20184;-54
2023/06/08 05:56:50;;;;;;;51.13;30.83;;;13.10;1.00;;;;;;5015093;28;20176;-55
2023/06/08 05:59:16;;;;;;;47.83;31.37;;;13.20;1.00;;;;;;5015457;28;20211;-55
2023/06/08 06:01:42;;;;;;;49.50;29.83;;;13.30;1.00;;;;;;5015066;28;20842;-55
2023/06/08 06:04:08;;;;;;;47.97;28.03;;;13.50;1.00;;;;;;5015326;28;20188;-55
2023/06/08 06:06:35;;;;;;;53.97;30.97;;;13.60;1.00;;;;;;5015625;28;21005;-56
2023/06/08 06:09:03;;;;;;;50.23;29.27;;;13.60;99.90;;;;;;5015095;28;20211;-56
2023/06/08 06:11:30;;;;;;;57.30;30.00;;;13.80;99.90;;;;;;5014942;28;20446;-57
2023/06/08 06:13:57;;;;;;;45.70;29.33;;;14.00;56.00;;;;;;5014275;28;20427;-56
2023/06/08 06:16:23;;;;;;;63.90;30.27;;;14.20;1.00;;;;;;5014464;28;20798;-56
2023/06/08 06:18:49;;;;;;;47.73;26.97;;;14.50;1.00;;;;;;5015078;28;20439;-57
2023/06/08 06:21:14;;;;;;;50.17;28.20;;;14.70;99.90;;;;;;5014803;28;20207;-56
2023/06/08 06:23:40;;;;;;;45.90;29.77;;;14.90;99.90;;;;;;5014713;28;20181;-56
2023/06/08 06:26:06;;;;;;;48.03;29.30;;;15.10;69.50;;;;;;5014849;28;20219;-56
2023/06/08 06:28:31;;;;;;;48.23;29.43;;;15.20;20.70;;;;;;5014651;28;20637;-57
2023/06/08 06:30:57;;;;;;;46.03;29.10;;;15.40;1.00;;;;;;5014766;28;20182;-57
2023/06/08 06:33:23;;;;;;;49.30;30.43;;;15.50;1.00;;;;;;5014555;28;20181;-58
2023/06/08 06:35:50;;;;;;;49.67;31.33;;;15.60;1.00;;;;;;5014240;28;20895;-57
2023/06/08 06:38:16;;;;;;;58.37;34.10;;;15.90;1.00;;;;;;5014912;28;20197;-57
2023/06/08 06:40:41;;;;;;;45.50;29.73;;;16.00;1.00;;;;;;5014863;28;20407;-56
2023/06/08 06:43:07;;;;;;;44.33;28.47;;;16.20;1.00;;;;;;5014727;28;20276;-56
2023/06/08 06:45:33;;;;;;;49.20;30.40;;;16.50;1.00;;;;;;5014473;28;20637;-56
2023/06/08 06:47:58;;;;;;;49.17;31.00;;;16.70;1.00;;;;;;5014435;28;20420;-56
2023/06/08 06:50:24;;;;;;;53.83;31.80;;;16.70;1.00;;;;;;5014617;28;20185;-56
2023/06/08 06:52:50;;;;;;;45.70;29.77;;;16.80;1.00;;;;;;5014273;28;20561;-55
2023/06/08 06:55:16;;;;;;;49.40;30.73;;;17.10;1.00;;;;;;5014395;28;20198;-57
2023/06/08 06:57:41;;;;;;;48.03;30.97;;;17.30;1.00;;;;;;5014062;28;20277;-57
2023/06/08 07:00:07;;;;;;;53.90;30.73;;;17.50;1.00;;;;;;5014266;28;20548;-57
2023/06/08 07:02:33;;;;;;;49.23;30.97;;;17.80;1.00;;;;;;5013416;28;20282;-56
2023/06/08 07:05:02;;;;;;;49.63;30.30;;;17.90;1.00;;;;;;5014093;28;20454;-57
2023/06/08 07:07:28;;;;;;;46.00;30.37;;;18.00;1.00;;;;;;5014061;28;20270;-56
2023/06/08 07:09:53;;;;;;;46.00;30.67;;;17.90;1.00;;;;;;5014311;28;20420;-57
2023/06/08 07:12:19;;;;;;;46.37;28.63;;;18.00;1.00;;;;;;5014035;28;20186;-57
2023/06/08 07:14:44;;;;;;;44.93;27.23;;;18.30;1.00;;;;;;5014371;28;20188;-57
2023/06/08 07:17:11;;;;;;;47.50;28.67;;;18.60;1.00;;;;;;5014111;28;20183;-57
2023/06/08 07:19:39;;;;;;;41.17;27.40;;;18.90;1.00;;;;;;5013886;28;20186;-57
2023/06/08 07:22:05;;;;;;;48.27;28.90;;;19.10;1.00;;;;;;5014076;28;20412;-57
2023/06/08 07:24:31;;;;;;;44.83;26.10;;;19.30;1.00;;;;;;5013855;28;20468;-57
2023/06/08 07:26:56;;;;;;;35.80;25.90;;;19.30;1.00;;;;;;5013075;28;20464;-58
2023/06/08 07:29:22;;;;;;;35.10;24.60;;;19.50;1.00;;;;;;5014143;28;20196;-57
2023/06/08 07:31:48;;;;;;;39.73;25.07;;;19.70;1.00;;;;;;5013745;28;20261;-58
2023/06/08 07:34:14;;;;;;;38.20;25.57;;;19.90;1.00;;;;;;5013533;28;20452;-58
2023/06/08 07:36:39;;;;;;;34.20;24.20;;;20.00;1.00;;;;;;5013786;28;20539;-58
2023/06/08 07:39:05;;;;;;;38.27;25.07;;;20.10;1.00;;;;;;5013634;28;20294;-57
2023/06/08 07:41:31;;;;;;;30.13;21.50;;;20.10;1.00;;;;;;5013304;28;20205;-57
2023/06/08 07:43:57;;;;;;;34.20;21.40;;;20.20;1.00;;;;;;5013684;28;20189;-57
2023/06/08 07:46:23;;;;;;;37.00;23.33;;;20.50;1.00;;;;;;5013779;28;20552;-58
2023/06/08 07:48:49;;;;;;;35.53;23.50;;;20.70;1.00;;;;;;5013643;28;20218;-56
2023/06/08 07:51:15;;;;;;;32.60;21.70;;;20.80;1.00;;;;;;5013874;28;20838;-57
2023/06/08 07:53:41;;;;;;;28.27;20.60;;;20.90;1.00;;;;;;5013815;28;20668;-57
2023/06/08 07:56:07;;;;;;;41.17;22.57;;;20.90;1.00;;;;;;5013462;28;20241;-57
2023/06/08 07:58:33;;;;;;;28.90;20.50;;;21.10;1.00;;;;;;5013233;28;20910;-57
2023/06/08 08:00:59;;;;;;;34.20;21.63;;;21.30;1.00;;;;;;5013609;28;20271;-57
2023/06/08 08:03:25;;;;;;;35.60;22.13;;;21.70;1.00;;;;;;5013738;28;20503;-55
2023/06/08 08:05:51;;;;;;;31.63;21.30;;;21.80;1.00;;;;;;5013544;28;20466;-57
2023/06/08 08:08:17;;;;;;;31.63;20.17;;;22.00;1.00;;;;;;5013379;28;20434;-58
2023/06/08 08:10:43;;;;;;;36.30;20.77;;;22.10;1.00;;;;;;5013746;28;20418;-57
2023/06/08 08:13:09;;;;;;;30.10;18.73;;;22.40;1.00;;;;;;5013172;28;20622;-56
2023/06/08 08:15:35;;;;;;;27.03;19.13;;;22.70;1.00;;;;;;5013107;28;20421;-56
2023/06/08 08:18:01;;;;;;;31.33;21.30;;;23.00;1.00;;;;;;5013051;28;20187;-56
2023/06/08 08:20:27;;;;;;;28.83;19.30;;;22.80;1.00;;;;;;5013005;28;20450;-55
2023/06/08 08:22:53;;;;;;;27.00;19.17;;;22.80;1.00;;;;;;5013345;28;20463;-56
2023/06/08 08:25:19;;;;;;;26.00;19.03;;;22.90;1.00;;;;;;5013200;28;20282;-55
2023/06/08 08:27:44;;;;;;;33.63;17.93;;;23.20;1.00;;;;;;5013123;28;20209;-56
2023/06/08 08:30:10;;;;;;;26.93;17.13;;;23.50;1.00;;;;;;5013478;28;20487;-56
2023/06/08 08:32:36;;;;;;;23.50;16.30;;;23.70;1.00;;;;;;5012931;28;20191;-56
2023/06/08 08:35:02;;;;;;;26.07;15.20;;;23.90;1.00;;;;;;5013329;28;20428;-56
2023/06/08 08:37:28;;;;;;;22.73;15.67;;;24.30;1.00;;;;;;5013739;28;20626;-56
2023/06/08 08:39:53;;;;;;;22.70;15.07;;;24.20;1.00;;;;;;5016637;28;20427;-56
2023/06/08 08:42:24;;;;;;;19.13;13.47;;;24.30;1.00;;;;;;5017037;28;20185;-56
2023/06/08 08:44:54;;;;;;;29.23;14.33;;;24.40;1.00;;;;;;5016473;28;20485;-56
2023/06/08 08:47:26;;;;;;;23.00;15.57;;;24.40;1.00;;;;;;5016661;28;20461;-56
2023/06/08 08:50:00;;;;;;;21.03;15.83;;;24.90;1.00;;;;;;5016893;28;20497;-56
2023/06/08 08:52:29;;;;;;;28.63;15.87;;;24.90;1.00;;;;;;5016471;28;20490;-56
2023/06/08 08:54:57;;;;;;;19.40;14.23;;;25.00;1.00;;;;;;5016605;28;20417;-57
2023/06/08 08:57:25;;;;;;;19.00;13.27;;;25.20;1.00;;;;;;5016194;28;20437;-57
2023/06/08 08:59:51;;;;;;;15.70;12.60;;;25.50;1.00;;;;;;5016342;28;21031;-56
2023/06/08 09:02:16;;;;;;;15.40;12.77;;;25.80;1.00;;;;;;5016512;28;20501;-57
2023/06/08 09:04:43;;;;;;;22.20;14.30;;;25.70;99.90;;;;;;5016325;28;20536;-57
2023/06/08 09:07:09;;;;;;;24.37;14.17;;;25.60;99.90;;;;;;5016215;28;20243;-57
2023/06/08 09:09:35;;;;;;;17.83;13.33;;;25.60;99.90;;;;;;5015887;28;20896;-57
2023/06/08 09:12:02;;;;;;;25.77;13.60;;;25.80;99.90;;;;;;5016096;28;20280;-56
2023/06/08 09:14:28;;;;;;;16.77;12.90;;;26.10;99.90;;;;;;5016308;28;20714;-57
2023/06/08 09:16:55;;;;;;;18.43;12.60;;;26.30;99.90;;;;;;5015819;28;20430;-57
2023/06/08 09:19:22;;;;;;;19.57;13.00;;;26.20;99.90;;;;;;5015829;28;20781;-57
2023/06/08 09:21:48;;;;;;;19.67;13.67;;;26.10;99.90;;;;;;5015965;28;20518;-57
2023/06/08 09:24:16;;;;;;;25.10;12.23;;;26.20;99.90;;;;;;5015562;28;20942;-57
2023/06/08 09:26:47;;;;;;;22.30;12.60;;;26.30;99.90;;;;;;5015629;28;20538;-57
2023/06/08 09:29:38;;;;;;;16.07;11.73;;;26.70;99.90;;;;;;5015612;28;20439;-57
2023/06/08 09:32:09;;;;;;;19.20;11.70;;;27.20;99.90;;;;;;5017125;28;20433;-57
2023/06/08 09:34:52;;;;;;;20.90;11.30;;;27.30;99.90;;;;;;5015537;28;20514;-56
2023/06/08 09:37:19;;;;;;;15.90;10.67;;;27.50;99.90;;;;;;5015527;28;20453;-57
2023/06/08 09:39:45;;;;;;;21.03;12.20;;;27.50;99.90;;;;;;5015630;28;21037;-55
2023/06/08 09:42:11;;;;;;;24.03;12.17;;;27.70;99.90;;;;;;5015555;28;20506;-56
2023/06/08 09:44:38;;;;;;;16.83;10.80;;;27.50;99.90;;;;;;5015235;28;20477;-55
2023/06/08 09:47:21;;;;;;;19.20;11.10;;;27.40;99.90;;;;;;5015264;28;20868;-56
2023/06/08 09:49:48;;;;;;;17.20;10.07;;;27.70;99.90;;;;;;5014572;28;20441;-56
2023/06/08 09:52:14;;;;;;;15.50;10.63;;;28.10;99.90;;;;;;5014629;28;20463;-56
2023/06/08 09:54:45;;;;;;;20.40;10.83;;;28.10;99.90;;;;;;5015319;28;20625;-56
2023/06/08 09:57:13;;;;;;;15.50;10.20;;;28.10;99.90;;;;;;5015328;28;20550;-53
2023/06/08 09:59:53;;;;;;;18.67;10.40;;;28.10;99.90;;;;;;5014736;28;20509;-54
2023/06/08 10:02:32;;;;;;;13.87;8.53;;;28.30;99.90;;;;;;5015047;28;20754;-54
2023/06/08 10:05:03;;;;;;;19.93;8.80;;;28.70;99.90;;;;;;5015050;28;20407;-54
2023/06/08 10:07:35;;;;;;;17.33;8.23;;;28.90;99.90;;;;;;5014586;28;20455;-54
2023/06/08 10:10:15;;;;;;;12.83;8.10;;;29.00;99.90;;;;;;5001822;28;20463;-54
2023/06/08 10:12:42;;;;;;;17.10;8.03;;;28.90;99.90;;;;;;4998262;28;20486;-54
2023/06/08 10:15:08;;;;;;;15.90;9.50;;;29.20;99.90;;;;;;4997588;28;20459;-55
2023/06/08 10:17:34;;;;;;;12.17;8.33;;;29.50;99.90;;;;;;4997886;28;20539;-55
2023/06/08 10:20:00;;;;;;;20.93;9.20;;;29.60;99.90;;;;;;4997606;28;20471;-56
2023/06/08 10:22:26;;;;;;;14.67;7.07;;;29.80;99.90;;;;;;5001802;28;20959;-55
2023/06/08 10:24:53;;;;;;;11.20;7.30;;;29.80;99.90;;;;;;4997844;28;20189;-56
2023/06/08 10:27:29;;;;;;;12.23;7.40;;;29.90;99.90;;;;;;4997887;28;20973;-56
2023/06/08 10:30:00;;;;;;;10.97;6.53;;;30.00;99.90;;;;;;4997834;28;20453;-56
2023/06/08 10:32:38;;;;;;;13.60;6.93;;;30.40;99.90;;;;;;4997123;28;20501;-55
2023/06/08 10:35:10;;;;;;;9.37;6.00;;;30.60;99.90;;;;;;4998660;28;20425;-56
2023/06/08 10:37:38;;;;;;;14.10;7.80;;;30.80;99.90;;;;;;4997588;28;20444;-56
2023/06/08 10:40:08;;;;;;;11.50;6.67;;;31.00;99.90;;;;;;4997719;28;20427;-56
2023/06/08 10:42:34;;;;;;;11.10;5.83;;;31.10;99.90;;;;;;4997448;28;20467;-56
2023/06/08 10:45:02;;;;;;;10.80;6.23;;;30.60;99.90;;;;;;4997200;28;20496;-56
2023/06/08 10:47:31;;;;;;;11.20;5.83;;;30.50;99.90;;;;;;4998584;28;20625;-55
2023/06/08 10:50:01;;;;;;;11.87;6.17;;;30.30;99.90;;;;;;4997646;28;20543;-56
2023/06/08 10:52:27;;;;;;;15.93;5.77;;;30.30;99.90;;;;;;4999914;28;20471;-55
2023/06/08 10:54:59;;;;;;;11.73;5.50;;;30.60;99.90;;;;;;4996986;28;20960;-57
2023/06/08 10:57:55;;;;;;;11.63;5.30;;;31.00;99.90;;;;;;5001255;28;20521;-57
2023/06/08 11:00:30;;;;;;;13.00;5.40;;;30.90;99.90;;;;;;4992740;28;20436;-57
2023/06/08 11:03:00;;;;;;;9.40;5.40;;;31.10;99.90;;;;;;4998124;28;20522;-57
2023/06/08 11:05:37;;;;;;;13.17;5.80;;;31.20;99.90;;;;;;4997381;28;20451;-57
2023/06/08 11:08:04;;;;;;;10.20;5.73;;;31.40;99.90;;;;;;5000318;28;20542;-56
2023/06/08 11:10:32;;;;;;;15.03;6.20;;;31.70;99.90;;;;;;4997282;28;20460;-57
2023/06/08 11:13:15;;;;;;;13.60;5.60;;;31.30;99.90;;;;;;4996939;28;20448;-57
2023/06/08 11:15:44;;;;;;;13.17;5.57;;;31.60;99.90;;;;;;5000257;28;20440;-57
2023/06/08 11:18:10;;;;;;;10.23;4.70;;;31.80;99.90;;;;;;4996790;28;20440;-57
2023/06/08 11:20:38;;;;;;;8.57;5.27;;;31.70;99.90;;;;;;4996807;28;20987;-57
2023/06/08 11:23:10;;;;;;;10.80;5.43;;;31.80;99.90;;;;;;4995908;28;20597;-56
2023/06/08 11:25:36;;;;;;;13.73;5.77;;;32.00;99.90;;;;;;4993429;28;20427;-57
2023/06/08 11:28:02;;;;;;;6.33;5.30;;;32.10;99.90;;;;;;4993074;28;20748;-58
2023/06/08 11:30:31;;;;;;;9.43;5.30;;;32.40;99.90;;;;;;4993652;28;20195;-57
2023/06/08 11:32:57;;;;;;;8.23;4.77;;;32.10;99.90;;;;;;4992661;28;20905;-56
2023/06/08 11:35:23;;;;;;;9.90;5.00;;;32.10;99.90;;;;;;4993804;28;20530;-57
2023/06/08 11:37:53;;;;;;;10.90;4.70;;;32.20;99.90;;;;;;4993869;28;20226;-57
2023/06/08 11:40:18;;;;;;;6.57;4.97;;;32.40;99.90;;;;;;4993763;28;20787;-58
2023/06/08 11:42:45;;;;;;;7.30;4.93;;;32.70;99.90;;;;;;4993485;28;20411;-57
2023/06/08 11:45:12;;;;;;;7.17;4.90;;;33.00;99.90;;;;;;4993610;28;20708;-56
2023/06/08 11:47:43;;;;;;;8.43;5.10;;;33.10;99.90;;;;;;4993894;28;20574;-57
2023/06/08 11:50:10;;;;;;;5.37;4.50;;;33.20;99.90;;;;;;4993702;28;20438;-57
2023/06/08 11:52:38;;;;;;;6.83;4.53;;;33.40;99.90;;;;;;4993557;28;20514;-57
2023/06/08 11:55:11;;;;;;;10.73;5.33;;;33.50;99.90;;;;;;4993612;28;20420;-57
2023/06/08 11:57:40;;;;;;;8.67;4.40;;;33.20;99.90;;;;;;4993137;28;20869;-56
2023/06/08 12:00:16;;;;;;;6.80;5.30;;;33.30;99.90;;;;;;4993387;28;20434;-57
2023/06/08 12:02:45;;;;;;;12.23;4.33;;;33.70;99.90;;;;;;4993393;28;20404;-57
2023/06/08 12:05:19;;;;;;;15.90;5.47;;;33.60;99.90;;;;;;4993608;28;20502;-56
2023/06/08 12:07:55;;;;;;;9.97;5.77;;;33.70;99.90;;;;;;4993627;28;20495;-57
2023/06/08 12:10:21;;;;;;;7.80;4.87;;;33.70;99.90;;;;;;4993257;28;20518;-57
2023/06/08 12:12:50;;;;;;;9.27;4.67;;;33.60;99.90;;;;;;4994543;28;20944;-57
2023/06/08 12:15:16;;;;;;;8.43;5.07;;;33.20;99.90;;;;;;5007198;28;20916;-57
2023/06/08 12:17:43;;;;;;;5.57;4.63;;;33.50;99.90;;;;;;5000333;28;20785;-57
2023/06/08 12:20:09;;;;;;;10.60;5.50;;;33.50;99.90;;;;;;5000341;28;20767;-57
2023/06/08 12:22:35;;;;;;;4.70;4.20;;;33.50;99.90;;;;;;5000230;28;20431;-56
2023/06/08 12:25:00;;;;;;;7.87;5.40;;;33.20;99.90;;;;;;5001139;28;20526;-55
2023/06/08 12:27:29;;;;;;;7.50;4.77;;;32.70;99.90;;;;;;5000463;28;20205;-56
2023/06/08 12:29:56;;;;;;;8.63;5.20;;;32.70;99.90;;;;;;5000213;28;20212;-55
2023/06/08 12:32:23;;;;;;;11.83;5.07;;;32.90;99.90;;;;;;4999531;28;20440;-56
2023/06/08 12:34:48;;;;;;;10.97;5.33;;;32.90;99.90;;;;;;4999959;28;20447;-55